Time;durP1;ratioP1;P1;durP2;ratioP2;P2;SDS_P1;SDS_P2;PMS_P1;PMS_P2;Temp;Humidity;BMP_temperature;BMP_pressure;BME280_temperature;BME280_humidity;BME280_pressure;Samples;Min_cycle;Max_cycle;Signal;HPM_P1;HPM_P2
2023/12/16 00:01:46;;;;;;;11.38;10.43;;;8.90;61.90;;;;;;20653;6755;279730;-75
2023/12/16 00:04:22;;;;;;;12.43;11.23;;;9.20;60.50;;;;;;20673;6755;277769;-75
2023/12/16 00:06:58;;;;;;;10.77;9.67;;;9.20;60.50;;;;;;20884;6755;117872;-75
2023/12/16 00:09:33;;;;;;;10.98;9.90;;;9.10;60.90;;;;;;20540;6755;308851;-74
2023/12/16 00:12:10;;;;;;;10.00;9.30;;;9.20;60.30;;;;;;20650;6755;307184;-74
2023/12/16 00:14:46;;;;;;;8.37;7.63;;;9.20;60.30;;;;;;20886;6755;117140;-74
2023/12/16 00:17:24;;;;;;;9.60;8.90;;;9.00;60.40;;;;;;20669;6755;306737;-74
2023/12/16 00:19:58;;;;;;;8.30;7.60;;;9.00;60.40;;;;;;20694;6755;118328;-74
2023/12/16 00:22:38;;;;;;;9.35;8.50;;;8.90;60.80;;;;;;20669;6755;307148;-74
2023/12/16 00:25:09;;;;;;;9.35;8.52;;;8.90;60.60;;;;;;20669;6755;300493;-74
2023/12/16 00:27:46;;;;;;;9.40;8.70;;;9.30;59.80;;;;;;20654;6755;298365;-75
2023/12/16 00:30:21;;;;;;;9.60;8.90;;;9.30;59.80;;;;;;20469;6755;284223;-74
2023/12/16 00:32:58;;;;;;;7.50;6.90;;;9.50;59.30;;;;;;20883;6755;117443;-74
2023/12/16 00:35:33;;;;;;;8.27;7.53;;;9.30;59.70;;;;;;20882;6755;116863;-74
2023/12/16 00:38:08;;;;;;;9.68;8.88;;;8.90;60.50;;;;;;20634;6755;336584;-74
2023/12/16 00:40:44;;;;;;;7.23;6.67;;;8.90;60.50;;;;;;20699;6812;117204;-74
2023/12/16 00:43:19;;;;;;;8.03;7.43;;;8.80;60.80;;;;;;20662;6755;335171;-74
2023/12/16 00:45:55;;;;;;;8.82;8.13;;;8.80;60.60;;;;;;20654;6755;306738;-75
2023/12/16 00:48:32;;;;;;;9.20;8.40;;;9.10;60.20;;;;;;20630;6755;309899;-75
2023/12/16 00:51:09;;;;;;;7.23;6.70;;;9.10;60.10;;;;;;20868;6755;116896;-75
2023/12/16 00:53:44;;;;;;;7.47;6.87;;;9.10;60.10;;;;;;20866;6755;117382;-76
2023/12/16 00:56:20;;;;;;;9.30;8.50;;;8.80;60.90;;;;;;20676;6755;306685;-75
2023/12/16 00:58:56;;;;;;;8.90;8.25;;;8.80;61.10;;;;;;20610;6755;309713;-75
2023/12/16 01:01:31;;;;;;;8.55;7.87;;;9.10;60.60;;;;;;20662;6755;277751;-75
2023/12/16 01:04:07;;;;;;;9.10;8.30;;;9.30;59.60;;;;;;20660;6755;276865;-75
2023/12/16 01:06:42;;;;;;;9.50;8.60;;;9.40;58.90;;;;;;20672;6755;292804;-75
2023/12/16 01:09:18;;;;;;;8.87;8.17;;;9.50;58.60;;;;;;20564;6755;314104;-75
2023/12/16 01:11:54;;;;;;;8.48;7.78;;;9.60;58.20;;;;;;20650;6755;320311;-75
2023/12/16 01:14:29;;;;;;;9.32;8.63;;;9.70;57.80;;;;;;20721;6755;276908;-74
2023/12/16 01:17:05;;;;;;;8.80;8.05;;;9.70;57.40;;;;;;20716;6755;306712;-75
2023/12/16 01:19:42;;;;;;;7.13;6.63;;;9.70;57.00;;;;;;20720;6755;118575;-77
2023/12/16 01:22:17;;;;;;;8.73;8.00;;;9.40;57.60;;;;;;20673;6755;277637;-75
2023/12/16 01:24:53;;;;;;;9.70;8.80;;;9.30;57.90;;;;;;20674;6755;279791;-75
2023/12/16 01:27:29;;;;;;;7.80;7.20;;;9.30;57.80;;;;;;20881;6755;116928;-75
2023/12/16 01:30:05;;;;;;;8.85;8.15;;;9.10;58.80;;;;;;20479;6755;339296;-75
2023/12/16 01:32:42;;;;;;;9.50;8.70;;;9.20;58.90;;;;;;20553;6755;307090;-75
2023/12/16 01:35:18;;;;;;;8.95;8.30;;;9.40;59.10;;;;;;20653;6755;279694;-75
2023/12/16 01:37:55;;;;;;;9.20;8.50;;;9.50;59.00;;;;;;20633;6755;276793;-75
2023/12/16 01:40:30;;;;;;;7.97;7.40;;;9.50;59.00;;;;;;20648;6755;117674;-75
2023/12/16 01:43:06;;;;;;;8.48;7.87;;;9.30;59.40;;;;;;20649;6755;335678;-75
2023/12/16 01:45:41;;;;;;;8.88;8.18;;;9.20;59.30;;;;;;20631;6755;297345;-76
2023/12/16 01:48:18;;;;;;;7.47;6.97;;;9.20;59.40;;;;;;20855;6755;120499;-75
2023/12/16 01:50:53;;;;;;;10.00;9.20;;;9.10;59.30;;;;;;20640;6755;305812;-75
2023/12/16 04:56:23;;;;;;;10.23;9.43;;;8.70;56.70;;;;;;21218;6517;277302;-74
2023/12/16 04:58:50;;;;;;;8.20;7.53;;;8.70;56.60;;;;;;20808;6814;117125;-73
2023/12/16 05:01:16;;;;;;;9.52;8.63;;;8.40;57.00;;;;;;20470;6862;279520;-74
2023/12/16 05:03:42;;;;;;;7.17;6.67;;;8.00;58.00;;;;;;20689;6869;117163;-74
2023/12/16 05:06:08;;;;;;;9.70;8.90;;;8.00;58.00;;;;;;20492;6869;311934;-74
2023/12/16 05:08:33;;;;;;;10.07;9.13;;;7.90;58.40;;;;;;20491;6869;312837;-73
2023/12/16 05:10:59;;;;;;;8.10;6.87;;;8.10;58.20;;;;;;20714;6869;69208;-75
2023/12/16 05:13:24;;;;;;;9.95;9.13;;;7.90;58.40;;;;;;20527;6869;280212;-75
2023/12/16 05:15:51;;;;;;;7.67;7.07;;;7.90;58.50;;;;;;20756;6869;68035;-75
2023/12/16 05:18:16;;;;;;;9.52;8.80;;;7.70;58.50;;;;;;20501;6869;308947;-76
2023/12/16 05:20:42;;;;;;;10.23;9.23;;;7.70;58.50;;;;;;20492;6869;296443;-76
2023/12/16 05:23:08;;;;;;;8.17;7.57;;;7.80;58.00;;;;;;20720;6869;67606;-76
2023/12/16 05:25:33;;;;;;;10.10;9.20;;;7.70;58.40;;;;;;20513;6869;310401;-76
2023/12/16 05:27:59;;;;;;;8.13;7.30;;;7.70;58.60;;;;;;20714;6869;67666;-76
2023/12/16 05:30:26;;;;;;;7.13;6.60;;;7.50;58.80;;;;;;20706;6869;67634;-76
2023/12/16 05:32:51;;;;;;;6.97;6.37;;;7.30;59.60;;;;;;20723;6869;68226;-76
2023/12/16 05:35:19;;;;;;;6.97;6.27;;;7.00;60.30;;;;;;20716;6869;68609;-76
2023/12/16 05:37:43;;;;;;;7.03;6.43;;;6.90;61.10;;;;;;20704;6869;69007;-76
2023/12/16 05:40:09;;;;;;;6.37;5.87;;;6.60;62.00;;;;;;20711;6869;72525;-76
2023/12/16 05:42:35;;;;;;;9.57;8.77;;;6.60;62.00;;;;;;20504;6869;340651;-76
2023/12/16 05:45:00;;;;;;;9.57;8.80;;;6.80;62.00;;;;;;20507;6869;310703;-76
2023/12/16 05:47:26;;;;;;;8.17;7.37;;;7.10;61.00;;;;;;20719;6869;92081;-76
2023/12/16 05:49:52;;;;;;;7.27;6.63;;;7.10;60.80;;;;;;20699;6869;68100;-76
2023/12/16 05:52:17;;;;;;;6.00;5.57;;;6.90;61.10;;;;;;20721;6869;70297;-76
2023/12/16 05:54:43;;;;;;;6.67;6.07;;;6.70;61.70;;;;;;20718;6869;67662;-76
2023/12/16 05:57:09;;;;;;;8.80;8.10;;;6.70;62.50;;;;;;20500;6869;314965;-76
2023/12/16 05:59:36;;;;;;;7.50;7.00;;;6.60;62.00;;;;;;20706;6867;68260;-76
2023/12/16 06:02:01;;;;;;;6.73;6.20;;;6.70;62.00;;;;;;20714;6867;68172;-76
2023/12/16 06:04:27;;;;;;;8.27;7.68;;;6.50;62.30;;;;;;20499;6867;280036;-76
2023/12/16 06:06:53;;;;;;;6.97;6.47;;;6.70;62.00;;;;;;20720;6865;71785;-75
2023/12/16 06:09:18;;;;;;;8.35;7.75;;;6.70;61.90;;;;;;20504;6866;294984;-75
2023/12/16 06:11:45;;;;;;;7.33;6.63;;;6.90;61.60;;;;;;20717;6866;68539;-76
2023/12/16 06:14:11;;;;;;;6.27;5.87;;;6.90;61.50;;;;;;20692;6866;117111;-76
2023/12/16 06:16:37;;;;;;;5.93;5.43;;;6.50;62.40;;;;;;20490;6938;117558;-76
2023/12/16 06:19:03;;;;;;;8.40;7.60;;;6.70;62.10;;;;;;20285;6931;311273;-76
2023/12/16 06:21:32;;;;;;;6.53;6.07;;;6.70;62.00;;;;;;20493;6935;117790;-75
2023/12/16 06:23:58;;;;;;;6.53;6.13;;;6.50;63.10;;;;;;20437;6931;119564;-75
2023/12/16 06:26:21;;;;;;;5.93;5.53;;;6.50;62.40;;;;;;20496;6935;118296;-75
2023/12/16 06:28:47;;;;;;;5.82;5.43;;;6.40;62.80;;;;;;20453;6946;118484;-76
2023/12/16 06:31:16;;;;;;;8.10;7.50;;;6.30;63.20;;;;;;20291;6935;340986;-75
2023/12/16 06:33:42;;;;;;;7.83;7.33;;;6.80;61.70;;;;;;20339;6931;281848;-77
2023/12/16 06:36:08;;;;;;;10.07;9.07;;;6.80;62.10;;;;;;20265;6946;311929;-76
2023/12/16 06:38:33;;;;;;;8.17;7.67;;;7.10;60.80;;;;;;20282;6935;314743;-76
2023/12/16 06:41:00;;;;;;;7.77;7.27;;;7.50;59.20;;;;;;20252;6946;311736;-75
2023/12/16 06:43:25;;;;;;;7.17;6.60;;;7.50;59.20;;;;;;20521;6927;118891;-75
2023/12/16 06:45:51;;;;;;;7.82;7.32;;;7.40;59.60;;;;;;20297;6927;311161;-75
2023/12/16 06:48:17;;;;;;;7.70;7.18;;;7.50;59.40;;;;;;20302;6927;300378;-76
2023/12/16 06:50:43;;;;;;;6.60;6.00;;;7.50;59.40;;;;;;20515;6927;118962;-76
2023/12/16 06:53:09;;;;;;;6.03;5.62;;;7.40;59.60;;;;;;20470;6946;118125;-76
2023/12/16 06:55:34;;;;;;;5.47;5.12;;;7.10;60.20;;;;;;20518;6931;118976;-76
2023/12/16 06:58:00;;;;;;;5.45;5.15;;;6.90;61.00;;;;;;20432;6935;118089;-76
2023/12/16 07:00:25;;;;;;;5.20;4.70;;;6.70;61.60;;;;;;20487;6935;119375;-76
2023/12/16 07:02:51;;;;;;;5.10;4.80;;;6.50;61.90;;;;;;20450;6953;117738;-76
2023/12/16 07:05:17;;;;;;;7.47;6.97;;;6.40;62.50;;;;;;20220;6955;341644;-76
2023/12/16 07:07:43;;;;;;;7.83;7.33;;;6.90;61.10;;;;;;20173;6955;314714;-76
2023/12/16 07:10:09;;;;;;;6.60;6.10;;;6.80;61.00;;;;;;20481;6942;118164;-75
2023/12/16 07:12:34;;;;;;;7.20;6.70;;;6.90;60.90;;;;;;20293;6932;284303;-76
2023/12/16 07:15:00;;;;;;;7.37;6.80;;;7.00;60.90;;;;;;20314;6932;310659;-76
2023/12/16 07:17:26;;;;;;;7.18;6.78;;;7.20;60.20;;;;;;20311;6930;280948;-74
2023/12/16 07:19:51;;;;;;;5.90;5.50;;;7.40;59.20;;;;;;20489;6931;119439;-74
2023/12/16 07:22:17;;;;;;;5.77;5.23;;;7.30;59.30;;;;;;20522;6931;118902;-76
2023/12/16 07:24:42;;;;;;;6.07;5.07;;;7.10;59.90;;;;;;20525;6931;118414;-75
2023/12/16 07:27:08;;;;;;;6.80;6.35;;;6.80;60.60;;;;;;20329;6931;282748;-74
2023/12/16 07:29:34;;;;;;;7.70;7.10;;;6.90;60.50;;;;;;20309;6931;311160;-75
2023/12/16 07:31:59;;;;;;;7.43;6.90;;;7.20;59.80;;;;;;20284;6931;342658;-76
2023/12/16 07:34:25;;;;;;;6.40;5.93;;;7.40;59.10;;;;;;20513;6931;119212;-75
2023/12/16 07:36:51;;;;;;;7.18;6.68;;;7.30;58.80;;;;;;20305;6931;310702;-75
2023/12/16 07:39:16;;;;;;;7.43;6.93;;;7.30;58.80;;;;;;20285;6931;312261;-75
2023/12/16 07:41:43;;;;;;;7.50;7.00;;;7.60;57.60;;;;;;20291;6931;282729;-76
2023/12/16 07:44:08;;;;;;;6.97;5.90;;;7.60;57.50;;;;;;20519;6931;117667;-75
2023/12/16 07:46:35;;;;;;;7.57;6.87;;;7.50;58.10;;;;;;20310;6931;281015;-76
2023/12/16 07:49:02;;;;;;;7.40;6.90;;;7.60;57.70;;;;;;20292;6931;312126;-73
2023/12/16 07:51:29;;;;;;;7.25;6.80;;;7.60;57.70;;;;;;20262;6931;342763;-74
2023/12/16 07:53:55;;;;;;;7.80;7.30;;;7.70;57.50;;;;;;20240;6931;298566;-73
2023/12/16 07:56:20;;;;;;;7.03;6.53;;;7.90;57.40;;;;;;20293;6932;311172;-74
2023/12/16 07:58:46;;;;;;;7.50;6.90;;;7.90;57.10;;;;;;20306;6932;306690;-74
2023/12/16 08:01:15;;;;;;;5.83;5.43;;;8.00;57.40;;;;;;20524;6932;119692;-74
2023/12/16 08:03:40;;;;;;;6.93;6.53;;;7.80;57.70;;;;;;20306;6932;328612;-76
2023/12/16 08:06:06;;;;;;;6.77;6.20;;;7.70;58.10;;;;;;20268;6946;312587;-75
2023/12/16 08:08:32;;;;;;;5.47;5.00;;;7.80;57.40;;;;;;20459;6946;117928;-74
2023/12/16 08:11:00;;;;;;;6.37;5.75;;;7.70;57.80;;;;;;20502;6935;117488;-74
2023/12/16 08:13:27;;;;;;;6.65;6.25;;;7.40;58.80;;;;;;20292;6935;311702;-75
2023/12/16 08:15:52;;;;;;;6.33;5.70;;;7.40;58.80;;;;;;20468;6939;117968;-75
2023/12/16 08:18:19;;;;;;;6.87;6.47;;;7.40;58.90;;;;;;20286;6935;310415;-74
2023/12/16 08:20:44;;;;;;;7.53;7.10;;;7.40;58.90;;;;;;20290;6935;310159;-74
2023/12/16 08:23:11;;;;;;;7.40;6.80;;;7.60;58.20;;;;;;20296;6935;341476;-75
2023/12/16 08:25:37;;;;;;;6.30;5.80;;;7.80;57.70;;;;;;20512;6935;119042;-74
2023/12/16 08:28:02;;;;;;;7.20;6.80;;;7.70;58.10;;;;;;20279;6935;281882;-77
2023/12/16 08:30:28;;;;;;;5.93;5.53;;;7.70;58.30;;;;;;20500;6933;117956;-74
2023/12/16 08:32:53;;;;;;;5.70;5.30;;;7.60;58.70;;;;;;20517;6934;122430;-74
2023/12/16 08:35:19;;;;;;;5.60;5.20;;;7.40;59.40;;;;;;20507;6934;115284;-74
2023/12/16 08:37:45;;;;;;;5.07;4.77;;;7.20;60.10;;;;;;20491;6934;117590;-75
2023/12/16 08:40:10;;;;;;;6.57;5.30;;;7.00;60.50;;;;;;20572;6712;130397;-76
2023/12/16 08:42:46;;;;;;;6.85;6.45;;;6.90;61.10;;;;;;20426;6836;280940;-76
2023/12/16 08:45:22;;;;;;;7.50;7.00;;;7.00;60.50;;;;;;20442;6836;280043;-77
2023/12/16 08:47:59;;;;;;;7.63;7.13;;;7.60;58.90;;;;;;20443;6836;282480;-74
2023/12/16 08:50:36;;;;;;;8.00;7.30;;;7.90;58.60;;;;;;20354;6821;313338;-75
2023/12/16 08:53:13;;;;;;;7.53;7.13;;;7.90;58.60;;;;;;20480;6825;302977;-77
2023/12/16 08:55:42;;;;;;;6.57;5.97;;;8.10;59.10;;;;;;20700;6825;68169;-78
2023/12/16 08:58:08;;;;;;;6.43;5.90;;;8.00;59.50;;;;;;20678;6884;69762;-78
2023/12/16 09:00:36;;;;;;;5.07;4.77;;;7.70;60.30;;;;;;20570;6884;68022;-79
2023/12/16 09:03:04;;;;;;;6.97;6.57;;;7.50;60.90;;;;;;20317;6937;310954;-77
2023/12/16 09:05:31;;;;;;;7.33;6.83;;;7.50;61.00;;;;;;20315;6937;311324;-78
2023/12/16 09:07:55;;;;;;;6.28;5.70;;;7.90;60.40;;;;;;20519;6937;68447;-77
2023/12/16 09:10:21;;;;;;;5.53;5.22;;;7.60;60.90;;;;;;20522;6937;68792;-78
2023/12/16 09:12:47;;;;;;;5.23;4.93;;;7.60;60.90;;;;;;20522;6937;69387;-83
2023/12/16 09:15:12;;;;;;;7.33;6.83;;;7.40;61.50;;;;;;20314;6937;281679;-75
2023/12/16 09:17:38;;;;;;;6.43;6.03;;;7.50;61.20;;;;;;20519;6937;68983;-76
2023/12/16 09:20:05;;;;;;;4.97;4.68;;;7.60;61.40;;;;;;20521;6937;73256;-76
2023/12/16 09:22:32;;;;;;;8.70;6.23;;;7.50;61.80;;;;;;20527;6937;69423;-77
2023/12/16 09:25:00;;;;;;;18.63;13.73;;;7.40;62.40;;;;;;20528;6937;68347;-77
2023/12/16 09:27:24;;;;;;;10.70;8.70;;;7.30;62.90;;;;;;20520;6937;68918;-78
2023/12/16 09:29:50;;;;;;;8.77;8.18;;;7.20;63.10;;;;;;20292;6937;285489;-81
2023/12/16 09:32:16;;;;;;;8.47;7.73;;;7.50;62.30;;;;;;20310;6937;313092;-78
2023/12/16 09:34:42;;;;;;;7.10;6.70;;;7.80;61.00;;;;;;20320;6937;311384;-78
2023/12/16 09:37:07;;;;;;;5.97;5.57;;;8.20;60.00;;;;;;20517;6937;68559;-78
2023/12/16 09:39:33;;;;;;;6.22;5.72;;;8.20;60.00;;;;;;20493;6937;117459;-80
2023/12/16 09:41:58;;;;;;;5.57;5.07;;;8.00;60.20;;;;;;20508;6921;117576;-78
2023/12/16 09:44:25;;;;;;;5.40;5.00;;;7.70;62.20;;;;;;20523;6933;119295;-79
2023/12/16 09:46:56;;;;;;;5.63;5.23;;;7.60;61.40;;;;;;20500;6933;118583;-77
2023/12/16 09:49:19;;;;;;;5.30;4.93;;;7.60;62.00;;;;;;20505;6933;117995;-77
2023/12/16 09:51:45;;;;;;;6.93;6.43;;;7.50;62.40;;;;;;20284;6933;281812;-78
2023/12/16 09:54:15;;;;;;;6.80;6.30;;;7.60;61.50;;;;;;20312;6933;310610;-79
2023/12/16 09:56:37;;;;;;;7.03;6.63;;;8.00;60.20;;;;;;20302;6933;341395;-79
2023/12/16 09:59:03;;;;;;;5.80;5.40;;;8.30;59.20;;;;;;20509;6933;68753;-81
2023/12/16 10:01:29;;;;;;;6.60;6.18;;;8.40;59.30;;;;;;20336;6933;310496;-80
2023/12/16 10:03:57;;;;;;;6.93;6.53;;;8.40;58.70;;;;;;20337;6933;310736;-81
2023/12/16 10:06:23;;;;;;;5.60;5.20;;;8.70;58.10;;;;;;20533;6933;70715;-82
2023/12/16 10:08:50;;;;;;;4.80;4.50;;;8.60;59.20;;;;;;20552;6933;68712;-81
2023/12/16 10:11:15;;;;;;;5.30;4.90;;;8.40;59.20;;;;;;20543;6933;68367;-80
2023/12/16 10:14:00;;;;;;;4.95;4.65;;;8.20;59.80;;;;;;20552;6933;67928;-81
2023/12/16 10:16:27;;;;;;;5.70;5.27;;;7.90;60.30;;;;;;20545;6933;68357;-80
2023/12/16 10:18:52;;;;;;;6.43;6.03;;;7.90;60.60;;;;;;20314;6933;310265;-80
2023/12/16 10:21:24;;;;;;;6.93;6.43;;;8.10;60.10;;;;;;20306;6933;340896;-80
2023/12/16 10:23:51;;;;;;;5.40;5.00;;;8.50;59.90;;;;;;20525;6933;68307;-79
2023/12/16 10:26:16;;;;;;;5.10;4.77;;;8.50;59.30;;;;;;20525;6933;68599;-80
2023/12/16 10:28:46;;;;;;;6.50;6.10;;;8.40;59.80;;;;;;20319;6933;283822;-79
2023/12/16 10:31:12;;;;;;;5.33;5.03;;;8.50;59.30;;;;;;20514;6933;68725;-77
2023/12/16 10:33:39;;;;;;;6.87;5.17;;;8.50;60.00;;;;;;20527;6933;69806;-78
2023/12/16 10:36:04;;;;;;;5.20;4.87;;;8.40;59.90;;;;;;20532;6933;68402;-79
2023/12/16 10:38:31;;;;;;;6.60;6.20;;;8.50;59.10;;;;;;20315;6933;314571;-78
2023/12/16 10:40:57;;;;;;;5.67;4.73;;;8.50;59.10;;;;;;20512;6933;68452;-80
2023/12/16 10:43:24;;;;;;;7.10;6.60;;;8.50;59.30;;;;;;20308;6933;341268;-82
2023/12/16 10:45:50;;;;;;;5.70;5.30;;;8.70;58.40;;;;;;20520;6933;73203;-83
2023/12/16 10:48:22;;;;;;;5.28;4.87;;;8.70;58.70;;;;;;20523;6933;68398;-81
2023/12/16 10:50:47;;;;;;;5.10;4.70;;;8.60;59.30;;;;;;20518;6933;68446;-84
2023/12/16 10:53:23;;;;;;;5.70;5.40;;;8.50;59.90;;;;;;20316;6931;312098;-84
2023/12/16 10:55:48;;;;;;;6.33;5.87;;;8.60;58.70;;;;;;20326;6932;311248;-84
2023/12/16 10:58:22;;;;;;;6.23;5.83;;;8.90;57.50;;;;;;20299;6933;312189;-84
2023/12/16 11:00:47;;;;;;;5.17;4.77;;;9.20;56.40;;;;;;20524;6933;68855;-81
2023/12/16 11:03:16;;;;;;;5.62;4.40;;;9.10;56.80;;;;;;20528;6933;68353;-83
2023/12/16 11:05:43;;;;;;;4.80;4.50;;;8.90;57.60;;;;;;20536;6933;67852;-84
2023/12/16 11:08:08;;;;;;;4.73;4.43;;;8.70;58.50;;;;;;20507;6933;70809;-84
2023/12/16 11:10:35;;;;;;;6.70;6.30;;;8.50;59.10;;;;;;20314;6933;309103;-79
2023/12/16 11:12:59;;;;;;;6.85;4.43;;;8.60;58.70;;;;;;20528;6933;68297;-82
2023/12/16 11:15:26;;;;;;;4.60;4.30;;;8.70;59.50;;;;;;20528;6933;68706;-83
2023/12/16 11:17:55;;;;;;;4.80;4.40;;;8.60;59.30;;;;;;20528;6933;67948;-79
2023/12/16 11:20:20;;;;;;;5.90;5.50;;;8.60;59.90;;;;;;20308;6933;281725;-81
2023/12/16 11:22:50;;;;;;;5.82;5.43;;;8.70;58.60;;;;;;20512;6933;68781;-79
2023/12/16 11:25:15;;;;;;;4.73;4.43;;;8.80;58.90;;;;;;20528;6933;69350;-78
2023/12/16 11:27:42;;;;;;;4.80;4.50;;;8.80;59.50;;;;;;20527;6933;68303;-78
2023/12/16 11:30:07;;;;;;;5.03;4.73;;;8.80;59.90;;;;;;20310;6933;310232;-78
2023/12/16 11:32:34;;;;;;;5.37;4.87;;;9.00;58.80;;;;;;20513;6933;68773;-79
2023/12/16 11:35:00;;;;;;;5.40;5.10;;;9.10;59.00;;;;;;20326;6933;281024;-80
2023/12/16 11:37:35;;;;;;;5.12;4.82;;;9.40;58.50;;;;;;20318;6933;340894;-77
2023/12/16 11:40:06;;;;;;;4.43;4.20;;;9.80;57.70;;;;;;20511;6933;72356;-82
2023/12/16 11:42:53;;;;;;;4.03;3.73;;;10.00;56.80;;;;;;20499;6933;67922;-79
2023/12/16 11:45:38;;;;;;;3.60;3.40;;;10.00;57.40;;;;;;20524;6933;67929;-77
2023/12/16 11:48:08;;;;;;;4.27;3.97;;;10.00;57.80;;;;;;20521;6933;68287;-80
2023/12/16 11:50:34;;;;;;;4.30;4.00;;;9.90;59.20;;;;;;20293;6933;285170;-82
2023/12/16 11:53:01;;;;;;;4.70;4.37;;;10.10;56.10;;;;;;20311;6933;311163;-81
2023/12/16 11:55:26;;;;;;;6.10;5.60;;;10.40;54.70;;;;;;20306;6933;310392;-81
2023/12/16 11:57:53;;;;;;;5.17;4.70;;;10.80;54.00;;;;;;20316;6933;312169;-79
2023/12/16 12:00:19;;;;;;;4.35;4.00;;;10.90;53.30;;;;;;20517;6933;68420;-84
2023/12/16 12:02:44;;;;;;;4.20;3.77;;;11.00;53.40;;;;;;20520;6933;68425;-81
2023/12/16 12:05:14;;;;;;;4.90;4.50;;;10.80;54.30;;;;;;20309;6931;303402;-79
2023/12/16 12:07:39;;;;;;;4.60;4.20;;;10.80;53.50;;;;;;20254;6932;311263;-82
2023/12/16 12:10:05;;;;;;;4.90;4.50;;;11.00;52.50;;;;;;20315;6933;310716;-82
2023/12/16 12:12:31;;;;;;;4.73;4.30;;;11.10;51.40;;;;;;20307;6933;310295;-80
2023/12/16 12:14:57;;;;;;;3.30;3.00;;;11.10;52.30;;;;;;20542;6933;68369;-84
2023/12/16 12:17:22;;;;;;;3.20;3.00;;;11.10;52.30;;;;;;20529;6933;67977;-80
2023/12/16 12:19:48;;;;;;;4.40;3.90;;;10.90;53.40;;;;;;20271;6933;282244;-78
2023/12/16 12:22:14;;;;;;;3.20;2.90;;;10.90;53.90;;;;;;20485;6929;118171;-80
2023/12/16 12:24:40;;;;;;;3.70;3.10;;;10.90;53.90;;;;;;20508;6929;118146;-82
2023/12/16 12:27:06;;;;;;;3.60;3.30;;;10.80;54.40;;;;;;20290;6929;312518;-81
2023/12/16 12:29:51;;;;;;;3.40;3.20;;;10.90;52.60;;;;;;20479;6929;117821;-81
2023/12/16 12:32:18;;;;;;;6.30;3.57;;;10.90;53.00;;;;;;20305;6929;311284;-83
2023/12/16 12:34:44;;;;;;;3.33;3.03;;;10.80;52.70;;;;;;20518;6929;119267;-79
2023/12/16 12:37:10;;;;;;;4.77;4.00;;;10.80;52.60;;;;;;20298;6929;310570;-80
2023/12/16 12:39:35;;;;;;;4.20;3.62;;;10.90;51.60;;;;;;20299;6929;280966;-80
2023/12/16 12:42:01;;;;;;;4.47;3.40;;;11.00;50.80;;;;;;20487;6929;118085;-78
2023/12/16 12:44:26;;;;;;;5.03;3.92;;;10.90;51.50;;;;;;20303;6929;340290;-77
2023/12/16 12:46:52;;;;;;;4.43;3.37;;;10.80;50.60;;;;;;20466;6947;118366;-78
2023/12/16 12:49:19;;;;;;;4.18;3.75;;;10.70;51.60;;;;;;20208;6962;311442;-77
2023/12/16 12:51:53;;;;;;;3.62;3.30;;;10.70;50.60;;;;;;20448;6947;118430;-79
2023/12/16 12:54:21;;;;;;;4.60;3.42;;;10.50;51.40;;;;;;20266;6947;310729;-79
2023/12/16 12:56:46;;;;;;;4.47;3.33;;;10.60;50.40;;;;;;20423;6961;117804;-79
2023/12/16 12:59:12;;;;;;;3.30;3.00;;;10.20;52.70;;;;;;20411;6961;118409;-77
2023/12/16 13:01:37;;;;;;;5.97;4.53;;;10.20;52.10;;;;;;20211;6950;306122;-78
2023/12/16 13:04:03;;;;;;;4.83;3.60;;;10.20;51.10;;;;;;20447;6950;118569;-76
2023/12/16 13:06:29;;;;;;;4.57;3.57;;;10.20;51.80;;;;;;20236;6950;341581;-77
2023/12/16 13:08:55;;;;;;;3.70;3.17;;;10.20;52.10;;;;;;20417;6950;118117;-78
2023/12/16 13:11:22;;;;;;;3.63;3.33;;;10.20;52.10;;;;;;20451;6950;118161;-80
2023/12/16 13:13:48;;;;;;;4.27;3.87;;;10.10;51.60;;;;;;20194;6965;313315;-77
2023/12/16 13:16:14;;;;;;;4.40;4.00;;;10.40;50.80;;;;;;20191;6961;312210;-78
2023/12/16 13:18:44;;;;;;;6.13;3.70;;;10.40;50.80;;;;;;20421;6960;119516;-78
2023/12/16 13:21:08;;;;;;;4.27;3.87;;;10.40;51.50;;;;;;20448;6950;118745;-77
2023/12/16 13:23:37;;;;;;;4.68;3.92;;;10.20;52.30;;;;;;20457;6949;117763;-77
2023/12/16 13:26:01;;;;;;;3.50;3.20;;;9.90;54.00;;;;;;20412;6957;119437;-77
2023/12/16 13:28:26;;;;;;;3.50;3.23;;;9.80;54.80;;;;;;20434;6957;118843;-77
2023/12/16 13:30:52;;;;;;;6.70;4.37;;;9.70;55.20;;;;;;20462;6946;116712;-78
2023/12/16 13:33:18;;;;;;;5.32;4.93;;;9.50;55.60;;;;;;20213;6961;341262;-77
2023/12/16 13:35:46;;;;;;;4.62;4.12;;;9.70;54.90;;;;;;20446;6946;121389;-75
2023/12/16 13:38:09;;;;;;;4.10;3.70;;;9.70;55.20;;;;;;20420;6961;117692;-77
2023/12/16 13:40:35;;;;;;;3.78;3.37;;;9.50;56.30;;;;;;20455;6946;117519;-76
2023/12/16 13:43:01;;;;;;;4.33;4.00;;;9.50;56.30;;;;;;20212;6961;282337;-77
2023/12/16 13:45:27;;;;;;;4.68;4.28;;;9.70;54.40;;;;;;20224;6950;282801;-77
2023/12/16 13:47:53;;;;;;;4.97;4.20;;;10.00;52.40;;;;;;20185;6964;281747;-77
2023/12/16 13:50:21;;;;;;;4.50;4.10;;;10.30;51.40;;;;;;20193;6964;282710;-79
2023/12/16 13:52:49;;;;;;;4.73;3.97;;;10.60;51.20;;;;;;20248;6950;281769;-77
2023/12/16 13:55:12;;;;;;;15.77;14.57;;;10.80;49.80;;;;;;20407;6965;119003;-78
2023/12/16 13:57:38;;;;;;;5.43;4.93;;;10.60;50.70;;;;;;20464;6950;118868;-78
2023/12/16 14:00:05;;;;;;;4.43;4.07;;;10.30;50.90;;;;;;20203;6950;310516;-79
2023/12/16 14:02:31;;;;;;;7.03;4.03;;;10.30;50.90;;;;;;20406;6965;117858;-80
2023/12/16 14:04:59;;;;;;;5.30;4.30;;;10.20;51.60;;;;;;20412;6965;118259;-79
2023/12/16 14:07:24;;;;;;;6.32;4.75;;;10.10;52.60;;;;;;20188;6967;312337;-78
2023/12/16 14:09:49;;;;;;;4.87;4.13;;;10.10;52.10;;;;;;20211;6947;282188;-79
2023/12/16 14:12:15;;;;;;;5.63;4.47;;;10.40;50.60;;;;;;20254;6947;312651;-78
2023/12/16 14:14:42;;;;;;;5.30;4.00;;;10.70;49.50;;;;;;20424;6961;117761;-77
2023/12/16 14:17:08;;;;;;;5.22;4.72;;;10.60;50.50;;;;;;20222;6957;312885;-78
2023/12/16 14:19:34;;;;;;;4.57;3.50;;;10.50;50.90;;;;;;20413;6957;119238;-77
2023/12/16 14:21:59;;;;;;;5.97;4.83;;;10.50;50.90;;;;;;20199;6961;281552;-78
2023/12/16 14:24:25;;;;;;;4.85;3.90;;;10.50;50.60;;;;;;20201;6961;311279;-76
2023/12/16 14:26:50;;;;;;;5.30;4.07;;;10.70;49.50;;;;;;20201;6959;312217;-77
2023/12/16 14:29:17;;;;;;;6.72;5.90;;;10.90;49.10;;;;;;20217;6960;313035;-77
2023/12/16 14:31:48;;;;;;;4.23;3.60;;;11.00;48.80;;;;;;20414;6960;118802;-77
2023/12/16 14:34:08;;;;;;;6.23;4.13;;;10.80;49.80;;;;;;20415;6960;118468;-78
2023/12/16 14:36:34;;;;;;;3.63;3.07;;;10.40;50.70;;;;;;20430;6960;119111;-78
2023/12/16 14:38:59;;;;;;;5.33;4.13;;;10.20;51.60;;;;;;20212;6720;341129;-74
2023/12/16 14:41:35;;;;;;;6.17;4.63;;;10.20;50.30;;;;;;20467;6818;304265;-72
2023/12/16 14:44:11;;;;;;;4.87;4.33;;;10.40;50.30;;;;;;20524;6803;280149;-73
2023/12/16 14:46:47;;;;;;;6.40;4.95;;;10.60;49.30;;;;;;20448;6832;308968;-72
2023/12/16 14:49:22;;;;;;;5.62;4.62;;;10.80;48.90;;;;;;20337;6828;285345;-72
2023/12/16 14:51:59;;;;;;;5.60;4.20;;;10.90;48.60;;;;;;20643;6828;117338;-74
2023/12/16 14:54:34;;;;;;;7.63;6.93;;;10.70;49.70;;;;;;20455;6828;309235;-74
2023/12/16 14:57:10;;;;;;;6.83;5.40;;;10.60;49.80;;;;;;20646;6833;117663;-73
2023/12/16 14:59:46;;;;;;;7.68;6.97;;;10.40;50.80;;;;;;20254;6845;340937;-74
2023/12/16 15:02:21;;;;;;;4.90;4.40;;;10.50;50.20;;;;;;20672;6822;117768;-72
2023/12/16 15:05:00;;;;;;;3.73;3.50;;;10.30;50.80;;;;;;20630;6826;118008;-72
2023/12/16 15:07:33;;;;;;;5.30;4.30;;;10.00;51.60;;;;;;20468;6819;309637;-72
2023/12/16 15:10:09;;;;;;;5.68;4.22;;;10.00;50.80;;;;;;20343;6802;311577;-76
2023/12/16 15:12:44;;;;;;;4.70;4.30;;;10.30;50.40;;;;;;20717;6802;117906;-74
2023/12/16 15:15:21;;;;;;;4.95;4.40;;;10.20;51.00;;;;;;20522;6802;309742;-73
2023/12/16 15:17:55;;;;;;;6.22;5.03;;;10.20;50.60;;;;;;20488;6802;337612;-73
2023/12/16 15:20:31;;;;;;;6.07;4.40;;;10.40;50.40;;;;;;20519;6802;118261;-74
2023/12/16 15:23:07;;;;;;;5.47;4.47;;;10.20;51.00;;;;;;20661;6802;117306;-72
2023/12/16 15:25:42;;;;;;;6.10;5.60;;;9.90;52.90;;;;;;20472;6802;342219;-72
2023/12/16 15:28:18;;;;;;;7.32;6.30;;;9.90;52.90;;;;;;20493;6802;279468;-72
2023/12/16 15:30:54;;;;;;;5.10;4.70;;;10.10;51.40;;;;;;20632;6802;118438;-74
2023/12/16 15:33:37;;;;;;;6.25;5.65;;;10.00;51.90;;;;;;20365;6721;339647;-79
2023/12/16 15:36:16;;;;;;;7.87;6.20;;;9.90;52.80;;;;;;20422;6838;312108;-78
2023/12/16 15:38:54;;;;;;;6.43;5.93;;;10.10;51.00;;;;;;20371;6853;280398;-71
2023/12/16 15:41:30;;;;;;;7.13;6.43;;;10.20;50.80;;;;;;20482;6837;280590;-70
2023/12/16 15:44:11;;;;;;;15.53;11.67;;;10.30;50.60;;;;;;20223;6850;281365;-71
2023/12/16 15:46:46;;;;;;;8.55;7.75;;;10.30;50.50;;;;;;20425;6820;341369;-71
2023/12/16 15:49:23;;;;;;;10.03;7.63;;;10.30;50.40;;;;;;20551;6864;118373;-71
2023/12/16 15:51:58;;;;;;;7.80;7.13;;;9.40;53.10;;;;;;20479;6814;118544;-69
2023/12/16 15:54:34;;;;;;;6.73;6.13;;;9.40;53.10;;;;;;20454;6905;118708;-69
2023/12/16 15:57:10;;;;;;;8.23;7.43;;;9.00;54.00;;;;;;20359;6845;312251;-69